Ellsworth AFB, SD

8:10 AM MDT on May 24, 2017 (GMT -0600)
Ellsworth Air Force Base

Weather History for KRCA - November, 2013

Change the Weather History Date:

Monday, November 11, 2013

  Actual Average Record
Temperature  
Mean Temperature 20 °F -  
Max Temperature 26 °F 46 °F 71 °F (2005)
Min Temperature 15 °F 25 °F 0 °F (2014)
Degree Days  
Heating Degree Days 44    
Moisture  
Dew Point 14 °F    
Average Humidity 82    
Maximum Humidity 93    
Minimum Humidity 74    
Precipitation  
Precipitation 0.01 in - - ()
Sea Level Pressure  
Sea Level Pressure 30.52 in    
Wind  
Wind Speed 9 mph (NE)    
Max Wind Speed 15 mph    
Max Gust Speed -    
Visibility 8 miles    
Events Snow    
Averages and records for this station are not official NWS values.
T = Trace of Precipitation, MM = Missing Value Source: NWS Daily Summary

Daily Weather History Graph

Daily Weather History Graph

Search for Another Location

Airport or City:

Trip Planner

Search our weather history database for the weather conditions in past years. The results will help you decide how hot, cold, wet, or windy it might be!

Date:

Astronomy

Nov. 11, 2013 Rise Set
Actual Time 6:42 AM MST 4:29 PM MST
Civil Twilight 6:11 AM MST 5:00 PM MST
Nautical Twilight 5:37 AM MST 5:35 PM MST
Astronomical Twilight 5:03 AM MST 6:09 PM MST
Moon 1:23 PM MST (11/11) 12:17 AM MST (11/11)
Length of Visible Light 10h 48m
Length of Day
9h 46m
Waxing Gibbous, 67% of the Moon is Illuminated
Nov 11
Waxing Gibbous
Nov 17
Full
Nov 25
Last Quarter
Dec 2
New
Dec 9
First Quarter

Hourly Weather History & Observations

Time (MST) Temp. Windchill Dew Point Humidity Pressure Visibility Wind Dir Wind Speed Gust Speed Precip Events Conditions
12:18 AM 26.6 °F 17.5 °F 23.0 °F 86% 30.26 in 10.0 mi NNE 9.2 mph - N/A   Overcast
12:33 AM 26.6 °F 15.7 °F 21.2 °F 80% 30.26 in 10.0 mi NNE 12.7 mph - N/A   Overcast
12:38 AM 26.6 °F 14.7 °F 21.2 °F 80% 30.25 in 10.0 mi NE 15.0 mph - N/A   Overcast
12:58 AM 26.6 °F 16.2 °F 21.2 °F 80% 30.34 in 10.0 mi NNE 11.5 mph - N/A   Overcast
1:58 AM 24.1 °F 12.5 °F 17.4 °F 76% 30.37 in 10.0 mi NNE 12.7 mph - N/A   Overcast
2:18 AM 23.0 °F 11.7 °F 17.6 °F 80% 30.30 in 10.0 mi NNE 11.5 mph - N/A   Overcast
2:33 AM 23.0 °F 11.7 °F 17.6 °F 80% 30.31 in 10.0 mi NNE 11.5 mph - N/A   Overcast
2:38 AM 23.0 °F 11.7 °F 17.6 °F 80% 30.32 in 10.0 mi North 11.5 mph - N/A   Overcast
2:53 AM 23.0 °F 11.1 °F 15.8 °F 74% 30.32 in 10.0 mi NNE 12.7 mph - N/A   Overcast
2:58 AM 22.8 °F 10.9 °F 15.6 °F 74% 30.40 in 10.0 mi NNE 12.7 mph - N/A   Overcast
3:38 AM 21.2 °F 9.5 °F 14.0 °F 74% 30.34 in 10.0 mi North 11.5 mph - N/A   Overcast
3:58 AM 21.4 °F 8.5 °F 14.4 °F 74% 30.44 in 10.0 mi North 13.8 mph - N/A   Overcast
4:38 AM 21.2 °F 8.9 °F 14.0 °F 74% 30.37 in 10.0 mi North 12.7 mph - N/A   Overcast
4:58 AM 21.2 °F 10.1 °F 14.0 °F 74% 30.47 in 10.0 mi NNE 10.4 mph - N/A   Overcast
5:08 AM 21.2 °F 10.1 °F 14.0 °F 74% 30.38 in 10.0 mi NNE 10.4 mph - N/A   Overcast
5:23 AM 21.2 °F 9.5 °F 15.8 °F 80% 30.39 in 10.0 mi NNE 11.5 mph - N/A   Overcast
5:58 AM 19.9 °F 9.3 °F 15.1 °F 81% 30.52 in 10.0 mi NNE 9.2 mph - N/A   Overcast
6:27 AM 19.4 °F 9.5 °F 15.8 °F 86% 30.42 in 10.0 mi North 8.1 mph - N/A   Overcast
6:37 AM 19.4 °F 8.6 °F 15.8 °F 86% 30.42 in 10.0 mi North 9.2 mph - N/A Snow Light Snow
6:58 AM 19.4 °F 7.2 °F 15.1 °F 83% 30.55 in 10.0 mi North 11.5 mph - 0.00 in Snow Light Snow
7:00 AM 19.4 °F 8.6 °F 15.8 °F 86% 30.43 in 10.0 mi North 9.2 mph - N/A   Overcast
7:07 AM 19.4 °F 7.9 °F 15.8 °F 86% 30.44 in 10.0 mi North 10.4 mph - N/A Snow Light Snow
7:18 AM 19.4 °F 7.9 °F 14.0 °F 80% 30.44 in 10.0 mi North 10.4 mph - N/A   Overcast
7:19 AM 19.4 °F 7.9 °F 14.0 °F 80% 30.44 in 10.0 mi North 10.4 mph - N/A Snow Light Snow
7:29 AM 19.4 °F 8.6 °F 15.8 °F 86% 30.45 in 10.0 mi North 9.2 mph - N/A Snow Light Snow
7:58 AM 19.0 °F 7.5 °F 15.4 °F 86% 30.60 in 4.0 mi NE 10.4 mph - 0.00 in Snow Light Snow
7:59 AM 19.4 °F 8.6 °F 15.8 °F 86% 30.47 in 4.0 mi NE 9.2 mph - N/A Snow Light Snow
8:04 AM 19.4 °F 9.5 °F 15.8 °F 86% 30.47 in 2.5 mi NE 8.1 mph - N/A Snow Light Snow
8:09 AM 19.4 °F 8.6 °F 15.8 °F 86% 30.48 in 2.0 mi NE 9.2 mph - N/A Snow Light Snow
8:14 AM 19.4 °F 8.6 °F 15.8 °F 86% 30.47 in 1.2 mi NE 9.2 mph - N/A Snow Light Snow
8:19 AM 17.6 °F 5.7 °F 15.8 °F 93% 30.48 in 0.8 mi NE 10.4 mph - N/A Snow Light Snow
8:34 AM 15.8 °F 4.2 °F 14.0 °F 93% 30.48 in 0.8 mi NE 9.2 mph - N/A Snow Light Snow
8:44 AM 15.8 °F 4.2 °F 12.2 °F 86% 30.48 in 0.8 mi ENE 9.2 mph - N/A Snow Light Snow
8:49 AM 15.8 °F 3.4 °F 12.2 °F 86% 30.49 in 1.0 mi NE 10.4 mph - N/A Snow Light Snow
8:54 AM 15.8 °F 5.1 °F 12.2 °F 86% 30.49 in 1.0 mi NE 8.1 mph - N/A Snow Light Snow
8:58 AM 15.8 °F 4.2 °F 12.4 °F 86% 30.65 in 1.0 mi NE 9.2 mph - 0.00 in Snow Light Snow
9:03 AM 15.8 °F 5.1 °F 12.2 °F 86% 30.50 in 0.8 mi NE 8.1 mph - N/A Snow Light Snow
9:13 AM 15.8 °F 5.1 °F 12.2 °F 86% 30.50 in 1.0 mi NE 8.1 mph - N/A Snow Light Snow
9:18 AM 15.8 °F 5.1 °F 12.2 °F 86% 30.50 in 1.2 mi ENE 8.1 mph - N/A Snow Light Snow
9:23 AM 15.8 °F 5.1 °F 12.2 °F 86% 30.50 in 1.5 mi NE 8.1 mph - N/A Snow Light Snow
9:28 AM 15.8 °F 6.1 °F 12.2 °F 86% 30.51 in 1.8 mi ENE 6.9 mph - N/A Snow Light Snow
9:33 AM 15.8 °F 6.1 °F 12.2 °F 86% 30.51 in 2.0 mi NE 6.9 mph - N/A Snow Light Snow
9:43 AM 15.8 °F 7.2 °F 12.2 °F 86% 30.51 in 2.5 mi ENE 5.8 mph - N/A Snow Light Snow
9:44 AM 15.8 °F 8.6 °F 12.2 °F 86% 30.52 in 2.5 mi ENE 4.6 mph - N/A Snow Light Snow
9:49 AM 17.6 °F 9.3 °F 12.2 °F 79% 30.51 in 4.0 mi East 5.8 mph - N/A Snow Light Snow
9:58 AM 16.9 °F 8.5 °F 12.2 °F 82% 30.66 in 7.0 mi ENE 5.8 mph - 0.01 in Snow Light Snow
10:03 AM 17.6 °F 10.7 °F 12.2 °F 79% 30.51 in 8.0 mi NE 4.6 mph - N/A Snow Light Snow
10:08 AM 17.6 °F 12.3 °F 12.2 °F 79% 30.51 in 9.0 mi NE 3.5 mph - N/A Snow Light Snow
10:13 AM 17.6 °F 12.3 °F 12.2 °F 79% 30.52 in 9.0 mi ENE 3.5 mph - N/A Snow Light Snow
10:58 AM 18.0 °F 8.7 °F 13.3 °F 82% 30.68 in 5.0 mi ENE 6.9 mph - 0.00 in Snow Light Snow
11:08 AM 17.6 °F 8.2 °F 14.0 °F 86% 30.53 in 5.0 mi NE 6.9 mph - N/A Snow Light Snow
11:13 AM 19.4 °F 10.4 °F 14.0 °F 80% 30.53 in 7.0 mi NE 6.9 mph - N/A Snow Light Snow
11:56 AM 17.6 °F - 12.2 °F 79% 30.53 in 10.0 mi NNE 1.2 mph - N/A   Overcast
11:58 AM 17.6 °F - 12.2 °F 79% 30.69 in 10.0 mi NNE 2.3 mph - 0.00 in   Overcast
12:08 PM 19.4 °F 14.3 °F 14.0 °F 80% 30.53 in 10.0 mi ENE 3.5 mph - N/A   Overcast
12:09 PM 19.4 °F 14.3 °F 14.0 °F 80% 30.53 in 10.0 mi ENE 3.5 mph - N/A   Overcast
12:24 PM 17.6 °F 12.3 °F 12.2 °F 79% 30.53 in 7.0 mi ESE 3.5 mph - N/A   Overcast
12:40 PM 17.6 °F 10.7 °F 14.0 °F 86% 30.52 in 10.0 mi East 4.6 mph - N/A   Overcast
12:50 PM 19.4 °F 12.8 °F 14.0 °F 80% 30.53 in 10.0 mi East 4.6 mph - N/A   Overcast
12:58 PM 18.9 °F 13.7 °F 13.8 °F 81% 30.69 in 10.0 mi ESE 3.5 mph - 0.00 in   Overcast
1:00 PM 19.4 °F 12.8 °F 14.0 °F 80% 30.52 in 9.0 mi ESE 4.6 mph - N/A   Overcast
1:05 PM 19.4 °F 14.3 °F 14.0 °F 80% 30.52 in 9.0 mi Variable 3.5 mph - N/A   Overcast
1:30 PM 19.4 °F 12.8 °F 14.0 °F 80% 30.53 in 10.0 mi SE 4.6 mph - N/A   Overcast
1:58 PM 19.0 °F 13.9 °F 13.8 °F 80% 30.70 in 10.0 mi SE 3.5 mph - 0.00 in   Overcast
2:58 PM 19.4 °F 12.8 °F 13.8 °F 79% 30.71 in 10.0 mi SE 4.6 mph - N/A   Mostly Cloudy
3:58 PM 19.0 °F 12.3 °F 13.8 °F 80% 30.73 in 10.0 mi ESE 4.6 mph - N/A   Overcast
4:58 PM 18.9 °F 13.7 °F 14.0 °F 81% 30.75 in 10.0 mi SE 3.5 mph - N/A   Overcast
5:58 PM 16.5 °F 8.1 °F 12.4 °F 84% 30.77 in 10.0 mi SSE 5.8 mph - N/A   Clear
6:58 PM 15.8 °F 7.2 °F 12.0 °F 85% 30.78 in 10.0 mi SE 5.8 mph - N/A   Clear
7:58 PM 16.0 °F 7.4 °F 12.2 °F 85% 30.80 in 10.0 mi SE 5.8 mph - N/A   Clear
8:58 PM 17.6 °F 10.7 °F 13.6 °F 84% 30.81 in 10.0 mi SSE 4.6 mph - N/A   Clear
9:58 PM 18.1 °F 10.0 °F 14.2 °F 84% 30.81 in 10.0 mi South 5.8 mph - N/A   Clear
10:58 PM 19.0 °F 9.0 °F 14.7 °F 83% 30.77 in 10.0 mi South 8.1 mph - N/A   Clear
11:58 PM 19.8 °F 8.3 °F 16.0 °F 85% 30.77 in 10.0 mi SSW 10.4 mph - N/A   Clear